< < Back
Terminal Aerodrome Forecast


Current Version              Previous Versions:   1  2  3  4  5  6  7  8  9  

Terminal Aerodrome Forecast

941
FTUS42 KCHS 180650 AAA
TAFSAV
TAF AMD
KSAV 180650Z 1807/1906 VRB03KT 6SM -RA BR SCT003 OVC015
      TEMPO 1807/1809 2SM RA BR BKN004 OVC010
     FM181000 VRB03KT 4SM BR VCSH BKN004 OVC012
     FM181300 VRB05KT P6SM BKN025 BKN090
     FM181600 16006KT P6SM BKN040=

Latest METAR

661
SAUS80 KWBC 180900 RRC
MTRSAV
METAR KSAV 180853Z AUTO 00000KT 6SM BR BKN003 OVC090 20/19 A2995 RMK AO2
RAE13 SLP142 P0001 60016 T02000189 56018 TSNO


USA.gov is the U.S. government's official web portal to all federal, state and local government web resources and services.